History Data

Date (GMT-7:00) CPM ACPM uSv/h Latitude Longitude Altitude CO CO2 TVOC HCHO Air Pressure Temperature Humidity Type
2026-01-17 23:14:17 18 18.50 0.090000 41.649648 41.62752893 0 0 0 0 0 0 0 0 STD5.60
2026-01-17 23:09:15 15 17.00 0.075000 41.649648 41.62752893 0 0 0 0 0 0 0 0 STD5.60
2026-01-17 23:04:13 18 17.90 0.090000 41.649648 41.62752893 0 0 0 0 0 0 0 0 STD5.60
2026-01-17 22:59:11 25 18.60 0.125000 41.649648 41.62752893 0 0 0 0 0 0 0 0 STD5.60
2026-01-17 22:54:09 14 18.30 0.070000 41.649648 41.62752893 0 0 0 0 0 0 0 0 STD5.60
2026-01-17 22:49:06 15 17.90 0.075000 41.649648 41.62752893 0 0 0 0 0 0 0 0 STD5.60
2026-01-17 22:44:05 18 19.00 0.090000 41.649648 41.62752893 0 0 0 0 0 0 0 0 STD5.60
2026-01-17 22:39:02 21 20.30 0.105000 41.649648 41.62752893 0 0 0 0 0 0 0 0 STD5.60
2026-01-17 22:33:56 21 18.00 0.105000 41.649648 41.62752893 0 0 0 0 0 0 0 0 STD5.60
2026-01-17 22:28:54 13 17.00 0.065000 41.649648 41.62752893 0 0 0 0 0 0 0 0 STD5.60
2026-01-17 22:23:52 21 16.80 0.105000 41.649648 41.62752893 0 0 0 0 0 0 0 0 STD5.60
2026-01-17 22:18:50 19 17.10 0.095000 41.649648 41.62752893 0 0 0 0 0 0 0 0 STD5.60
2026-01-17 22:13:47 15 17.00 0.075000 41.649648 41.62752893 0 0 0 0 0 0 0 0 STD5.60
2026-01-17 22:08:46 20 18.00 0.100000 41.649648 41.62752893 0 0 0 0 0 0 0 0 STD5.60
2026-01-17 22:03:44 21 18.10 0.105000 41.649648 41.62752893 0 0 0 0 0 0 0 0 STD5.60
2026-01-17 21:58:42 23 18.00 0.115000 41.649648 41.62752893 0 0 0 0 0 0 0 0 STD5.60
2026-01-17 21:53:40 25 17.60 0.125000 41.649648 41.62752893 0 0 0 0 0 0 0 0 STD5.60
2026-01-17 21:48:38 20 16.60 0.100000 41.649648 41.62752893 0 0 0 0 0 0 0 0 STD5.60
2026-01-17 21:43:35 16 18.60 0.080000 41.649648 41.62752893 0 0 0 0 0 0 0 0 STD5.60
2026-01-17 21:38:34 19 19.60 0.095000 41.649648 41.62752893 0 0 0 0 0 0 0 0 STD5.60
2026-01-17 21:33:30 19 19.10 0.095000 41.649648 41.62752893 0 0 0 0 0 0 0 0 STD5.60
2026-01-17 21:28:27 27 18.10 0.135000 41.649648 41.62752893 0 0 0 0 0 0 0 0 STD5.60
2026-01-17 21:23:25 13 16.90 0.065000 41.649648 41.62752893 0 0 0 0 0 0 0 0 STD5.60
2026-01-17 21:18:23 16 16.90 0.080000 41.649648 41.62752893 0 0 0 0 0 0 0 0 STD5.60
2026-01-17 21:13:22 21 17.20 0.105000 41.649648 41.62752893 0 0 0 0 0 0 0 0 STD5.60
2026-01-17 21:08:19 21 16.30 0.105000 41.649648 41.62752893 0 0 0 0 0 0 0 0 STD5.60
2026-01-17 21:03:17 19 16.70 0.095000 41.649648 41.62752893 0 0 0 0 0 0 0 0 STD5.60
2026-01-17 20:58:15 19 17.10 0.095000 41.649648 41.62752893 0 0 0 0 0 0 0 0 STD5.60
2026-01-17 20:53:13 15 17.40 0.075000 41.649648 41.62752893 0 0 0 0 0 0 0 0 STD5.60
2026-01-17 20:48:11 20 19.00 0.100000 41.649648 41.62752893 0 0 0 0 0 0 0 0 STD5.60
2026-01-17 20:43:10 18 18.30 0.090000 41.649648 41.62752893 0 0 0 0 0 0 0 0 STD5.60
2026-01-17 20:38:07 15 19.00 0.075000 41.649648 41.62752893 0 0 0 0 0 0 0 0 STD5.60
2026-01-17 20:33:04 14 18.70 0.070000 41.649648 41.62752893 0 0 0 0 0 0 0 0 STD5.60
2026-01-17 20:28:01 17 16.90 0.085000 41.649648 41.62752893 0 0 0 0 0 0 0 0 STD5.60
2026-01-17 20:22:58 24 18.20 0.120000 41.649648 41.62752893 0 0 0 0 0 0 0 0 STD5.60
2026-01-17 20:17:56 24 18.90 0.120000 41.649648 41.62752893 0 0 0 0 0 0 0 0 STD5.60
2026-01-17 20:12:54 13 17.80 0.065000 41.649648 41.62752893 0 0 0 0 0 0 0 0 STD5.60
2026-01-17 20:07:52 18 17.00 0.090000 41.649648 41.62752893 0 0 0 0 0 0 0 0 STD5.60
2026-01-17 20:02:50 20 16.80 0.100000 41.649648 41.62752893 0 0 0 0 0 0 0 0 STD5.60
2026-01-17 19:57:48 16 16.60 0.080000 41.649648 41.62752893 0 0 0 0 0 0 0 0 STD5.60
2026-01-17 19:52:45 24 18.20 0.120000 41.649648 41.62752893 0 0 0 0 0 0 0 0 STD5.60
2026-01-17 19:47:44 20 19.20 0.100000 41.649648 41.62752893 0 0 0 0 0 0 0 0 STD5.60
2026-01-17 19:42:41 12 19.70 0.060000 41.649648 41.62752893 0 0 0 0 0 0 0 0 STD5.60
2026-01-17 19:37:39 16 18.50 0.080000 41.649648 41.62752893 0 0 0 0 0 0 0 0 STD5.60
2026-01-17 19:32:34 10 17.10 0.050000 41.649648 41.62752893 0 0 0 0 0 0 0 0 STD5.60
2026-01-17 19:27:32 8 17.60 0.040000 41.649648 41.62752893 0 0 0 0 0 0 0 0 STD5.60
2026-01-17 19:22:30 17 18.50 0.085000 41.649648 41.62752893 0 0 0 0 0 0 0 0 STD5.60
2026-01-17 19:17:29 23 18.80 0.115000 41.649648 41.62752893 0 0 0 0 0 0 0 0 STD5.60
2026-01-17 19:12:26 17 17.80 0.085000 41.649648 41.62752893 0 0 0 0 0 0 0 0 STD5.60
2026-01-17 19:07:23 15 17.70 0.075000 41.649648 41.62752893 0 0 0 0 0 0 0 0 STD5.60
2026-01-17 19:02:21 18 16.90 0.090000 41.649648 41.62752893 0 0 0 0 0 0 0 0 STD5.60
2026-01-17 18:57:19 15 14.80 0.075000 41.649648 41.62752893 0 0 0 0 0 0 0 0 STD5.60
2026-01-17 18:52:17 16 15.70 0.080000 41.649648 41.62752893 0 0 0 0 0 0 0 0 STD5.60
2026-01-17 18:47:16 16 15.90 0.080000 41.649648 41.62752893 0 0 0 0 0 0 0 0 STD5.60
2026-01-17 18:42:13 16 16.70 0.080000 41.649648 41.62752893 0 0 0 0 0 0 0 0 STD5.60
2026-01-17 18:37:11 19 16.60 0.095000 41.649648 41.62752893 0 0 0 0 0 0 0 0 STD5.60
2026-01-17 18:32:08 16 16.60 0.080000 41.649648 41.62752893 0 0 0 0 0 0 0 0 STD5.60
2026-01-17 18:27:06 18 17.40 0.090000 41.649648 41.62752893 0 0 0 0 0 0 0 0 STD5.60
2026-01-17 18:22:04 15 18.60 0.075000 41.649648 41.62752893 0 0 0 0 0 0 0 0 STD5.60
2026-01-17 18:17:02 24 17.40 0.120000 41.649648 41.62752893 0 0 0 0 0 0 0 0 STD5.60
2026-01-17 18:12:00 13 16.90 0.065000 41.649648 41.62752893 0 0 0 0 0 0 0 0 STD5.60
2026-01-17 18:06:58 18 17.80 0.090000 41.649648 41.62752893 0 0 0 0 0 0 0 0 STD5.60
2026-01-17 18:01:55 20 16.10 0.100000 41.649648 41.62752893 0 0 0 0 0 0 0 0 STD5.60
2026-01-17 17:56:53 13 15.40 0.065000 41.649648 41.62752893 0 0 0 0 0 0 0 0 STD5.60
2026-01-17 17:51:51 12 17.60 0.060000 41.649648 41.62752893 0 0 0 0 0 0 0 0 STD5.60
2026-01-17 17:46:49 21 19.50 0.105000 41.649648 41.62752893 0 0 0 0 0 0 0 0 STD5.60
2026-01-17 17:41:47 21 19.20 0.105000 41.649648 41.62752893 0 0 0 0 0 0 0 0 STD5.60
2026-01-17 17:36:45 23 16.20 0.115000 41.649648 41.62752893 0 0 0 0 0 0 0 0 STD5.60
2026-01-17 17:31:40 12 16.10 0.060000 41.649648 41.62752893 0 0 0 0 0 0 0 0 STD5.60
2026-01-17 17:26:38 20 17.80 0.100000 41.649648 41.62752893 0 0 0 0 0 0 0 0 STD5.60
2026-01-17 17:21:35 19 17.00 0.095000 41.649648 41.62752893 0 0 0 0 0 0 0 0 STD5.60
2026-01-17 17:16:33 19 16.90 0.095000 41.649648 41.62752893 0 0 0 0 0 0 0 0 STD5.60
2026-01-17 17:11:31 14 17.20 0.070000 41.649648 41.62752893 0 0 0 0 0 0 0 0 STD5.60
2026-01-17 17:06:30 19 18.10 0.095000 41.649648 41.62752893 0 0 0 0 0 0 0 0 STD5.60
2026-01-17 17:01:27 21 18.40 0.105000 41.649648 41.62752893 0 0 0 0 0 0 0 0 STD5.60
2026-01-17 16:56:25 15 16.50 0.075000 41.649648 41.62752893 0 0 0 0 0 0 0 0 STD5.60
2026-01-17 16:51:23 14 16.60 0.070000 41.649648 41.62752893 0 0 0 0 0 0 0 0 STD5.60
2026-01-17 16:46:21 30 17.10 0.150000 41.649648 41.62752893 0 0 0 0 0 0 0 0 STD5.60
2026-01-17 16:41:18 19 15.90 0.095000 41.649648 41.62752893 0 0 0 0 0 0 0 0 STD5.60
2026-01-17 16:36:14 17 17.40 0.085000 41.649648 41.62752893 0 0 0 0 0 0 0 0 STD5.60
2026-01-17 16:31:12 28 19.10 0.140000 41.649648 41.62752893 0 0 0 0 0 0 0 0 STD5.60
2026-01-17 16:26:10 18 17.10 0.090000 41.649648 41.62752893 0 0 0 0 0 0 0 0 STD5.60
2026-01-17 16:21:08 17 15.60 0.085000 41.649648 41.62752893 0 0 0 0 0 0 0 0 STD5.60
2026-01-17 16:16:06 16 16.90 0.080000 41.649648 41.62752893 0 0 0 0 0 0 0 0 STD5.60
2026-01-17 16:11:04 15 16.00 0.075000 41.649648 41.62752893 0 0 0 0 0 0 0 0 STD5.60
2026-01-17 16:06:02 11 16.30 0.055000 41.649648 41.62752893 0 0 0 0 0 0 0 0 STD5.60
2026-01-17 16:01:01 18 18.40 0.090000 41.649648 41.62752893 0 0 0 0 0 0 0 0 STD5.60
2026-01-17 15:55:58 21 18.40 0.105000 41.649648 41.62752893 0 0 0 0 0 0 0 0 STD5.60
2026-01-17 15:50:56 12 18.60 0.060000 41.649648 41.62752893 0 0 0 0 0 0 0 0 STD5.60
2026-01-17 15:45:54 13 19.00 0.065000 41.649648 41.62752893 0 0 0 0 0 0 0 0 STD5.60
2026-01-17 15:40:52 12 16.90 0.060000 41.649648 41.62752893 0 0 0 0 0 0 0 0 STD5.60
2026-01-17 15:35:48 12 16.80 0.060000 41.649648 41.62752893 0 0 0 0 0 0 0 0 STD5.60
2026-01-17 15:30:46 14 18.50 0.070000 41.649648 41.62752893 0 0 0 0 0 0 0 0 STD5.60
2026-01-17 15:25:45 26 17.90 0.130000 41.649648 41.62752893 0 0 0 0 0 0 0 0 STD5.60
2026-01-17 15:20:43 20 18.50 0.100000 41.649648 41.62752893 0 0 0 0 0 0 0 0 STD5.60
2026-01-17 15:15:40 22 17.80 0.110000 41.649648 41.62752893 0 0 0 0 0 0 0 0 STD5.60
2026-01-17 15:10:38 16 16.00 0.080000 41.649648 41.62752893 0 0 0 0 0 0 0 0 STD5.60
2026-01-17 15:05:36 21 17.50 0.105000 41.649648 41.62752893 0 0 0 0 0 0 0 0 STD5.60
2026-01-17 15:00:34 22 18.90 0.110000 41.649648 41.62752893 0 0 0 0 0 0 0 0 STD5.60
2026-01-17 14:55:32 13 18.30 0.065000 41.649648 41.62752893 0 0 0 0 0 0 0 0 STD5.60
2026-01-17 14:50:30 24 18.20 0.120000 41.649648 41.62752893 0 0 0 0 0 0 0 0 STD5.60
2026-01-17 14:45:28 20 18.90 0.100000 41.649648 41.62752893 0 0 0 0 0 0 0 0 STD5.60
2026-01-17 14:40:25 15 19.10 0.075000 41.649648 41.62752893 0 0 0 0 0 0 0 0 STD5.60
2026-01-17 14:35:20 20 18.10 0.100000 41.649648 41.62752893 0 0 0 0 0 0 0 0 STD5.60
2026-01-17 14:30:18 16 18.30 0.080000 41.649648 41.62752893 0 0 0 0 0 0 0 0 STD5.60
2026-01-17 14:25:16 16 19.40 0.080000 41.649648 41.62752893 0 0 0 0 0 0 0 0 STD5.60
2026-01-17 14:20:14 22 18.60 0.110000 41.649648 41.62752893 0 0 0 0 0 0 0 0 STD5.60
2026-01-17 14:15:13 17 18.60 0.085000 41.649648 41.62752893 0 0 0 0 0 0 0 0 STD5.60
2026-01-17 14:10:10 12 18.40 0.060000 41.649648 41.62752893 0 0 0 0 0 0 0 0 STD5.60
2026-01-17 14:05:08 15 17.50 0.075000 41.649648 41.62752893 0 0 0 0 0 0 0 0 STD5.60
2026-01-17 14:00:07 18 16.40 0.090000 41.649648 41.62752893 0 0 0 0 0 0 0 0 STD5.60
2026-01-17 13:55:04 14 16.90 0.070000 41.649648 41.62752893 0 0 0 0 0 0 0 0 STD5.60
2026-01-17 13:50:03 26 18.40 0.130000 41.649648 41.62752893 0 0 0 0 0 0 0 0 STD5.60
2026-01-17 13:45:00 19 18.40 0.095000 41.649648 41.62752893 0 0 0 0 0 0 0 0 STD5.60
2026-01-17 13:39:58 19 18.70 0.095000 41.649648 41.62752893 0 0 0 0 0 0 0 0 STD5.60
2026-01-17 13:34:53 17 18.60 0.085000 41.649648 41.62752893 0 0 0 0 0 0 0 0 STD5.60
2026-01-17 13:29:51 17 18.50 0.085000 41.649648 41.62752893 0 0 0 0 0 0 0 0 STD5.60
2026-01-17 13:24:50 17 17.60 0.085000 41.649648 41.62752893 0 0 0 0 0 0 0 0 STD5.60
2026-01-17 13:19:48 17 17.00 0.085000 41.649648 41.62752893 0 0 0 0 0 0 0 0 STD5.60
2026-01-17 13:14:45 18 18.80 0.090000 41.649648 41.62752893 0 0 0 0 0 0 0 0 STD5.60
2026-01-17 13:09:43 17 17.80 0.085000 41.649648 41.62752893 0 0 0 0 0 0 0 0 STD5.60
2026-01-17 13:04:41 18 16.30 0.090000 41.649648 41.62752893 0 0 0 0 0 0 0 0 STD5.60
2026-01-17 12:59:39 18 16.90 0.090000 41.649648 41.62752893 0 0 0 0 0 0 0 0 STD5.60
2026-01-17 12:54:37 12 17.20 0.060000 41.649648 41.62752893 0 0 0 0 0 0 0 0 STD5.60
2026-01-17 12:49:35 19 17.70 0.095000 41.649648 41.62752893 0 0 0 0 0 0 0 0 STD5.60
2026-01-17 12:44:33 18 16.20 0.090000 41.649648 41.62752893 0 0 0 0 0 0 0 0 STD5.60
2026-01-17 12:39:31 17 16.20 0.085000 41.649648 41.62752893 0 0 0 0 0 0 0 0 STD5.60
2026-01-17 12:34:27 6 16.90 0.030000 41.649648 41.62752893 0 0 0 0 0 0 0 0 STD5.60
2026-01-17 12:29:25 23 17.70 0.115000 41.649648 41.62752893 0 0 0 0 0 0 0 0 STD5.60
2026-01-17 12:24:23 21 17.40 0.105000 41.649648 41.62752893 0 0 0 0 0 0 0 0 STD5.60
2026-01-17 12:19:21 19 16.40 0.095000 41.649648 41.62752893 0 0 0 0 0 0 0 0 STD5.60
2026-01-17 12:14:19 15 16.40 0.075000 41.649648 41.62752893 0 0 0 0 0 0 0 0 STD5.60
2026-01-17 12:09:17 21 17.20 0.105000 41.649648 41.62752893 0 0 0 0 0 0 0 0 STD5.60
2026-01-17 12:04:14 23 20.00 0.115000 41.649648 41.62752893 0 0 0 0 0 0 0 0 STD5.60
2026-01-17 11:59:13 21 19.50 0.105000 41.649648 41.62752893 0 0 0 0 0 0 0 0 STD5.60
2026-01-17 11:54:10 23 20.20 0.115000 41.649648 41.62752893 0 0 0 0 0 0 0 0 STD5.60
2026-01-17 11:49:08 19 19.90 0.095000 41.649648 41.62752893 0 0 0 0 0 0 0 0 STD5.60
2026-01-17 11:44:06 18 14.80 0.090000 41.649648 41.62752893 0 0 0 0 0 0 0 0 STD5.60
2026-01-17 11:39:05 21 6.40 0.105000 41.649648 41.62752893 0 0 0 0 0 0 0 0 STD5.60
2026-01-17 11:34:00 26 19.70 0.130000 41.649648 41.62752893 0 0 0 0 0 0 0 0 STD5.60
2026-01-17 11:28:58 16 18.70 0.080000 41.649648 41.62752893 0 0 0 0 0 0 0 0 STD5.60
2026-01-17 11:23:56 17 20.10 0.085000 41.649648 41.62752893 0 0 0 0 0 0 0 0 STD5.60
2026-01-17 11:18:54 27 19.40 0.135000 41.649648 41.62752893 0 0 0 0 0 0 0 0 STD5.60
2026-01-17 11:13:53 13 16.30 0.065000 41.649648 41.62752893 0 0 0 0 0 0 0 0 STD5.60
2026-01-17 11:08:51 11 15.90 0.055000 41.649648 41.62752893 0 0 0 0 0 0 0 0 STD5.60
2026-01-17 11:03:48 20 17.20 0.100000 41.649648 41.62752893 0 0 0 0 0 0 0 0 STD5.60
2026-01-17 10:58:47 16 16.80 0.080000 41.649648 41.62752893 0 0 0 0 0 0 0 0 STD5.60
2026-01-17 10:53:44 22 17.90 0.110000 41.649648 41.62752893 0 0 0 0 0 0 0 0 STD5.60
2026-01-17 10:48:43 22 19.30 0.110000 41.649648 41.62752893 0 0 0 0 0 0 0 0 STD5.60
2026-01-17 10:43:41 21 17.40 0.105000 41.649648 41.62752893 0 0 0 0 0 0 0 0 STD5.60
2026-01-17 10:38:38 13 15.90 0.065000 41.649648 41.62752893 0 0 0 0 0 0 0 0 STD5.60
2026-01-17 10:33:35 19 14.80 0.095000 41.649648 41.62752893 0 0 0 0 0 0 0 0 STD5.60
2026-01-17 10:28:32 13 14.50 0.065000 41.649648 41.62752893 0 0 0 0 0 0 0 0 STD5.60
2026-01-17 10:23:30 12 17.30 0.060000 41.649648 41.62752893 0 0 0 0 0 0 0 0 STD5.60
2026-01-17 10:18:28 20 18.30 0.100000 41.649648 41.62752893 0 0 0 0 0 0 0 0 STD5.60
2026-01-17 10:13:26 14 17.50 0.070000 41.649648 41.62752893 0 0 0 0 0 0 0 0 STD5.60
2026-01-17 10:08:24 19 18.10 0.095000 41.649648 41.62752893 0 0 0 0 0 0 0 0 STD5.60
2026-01-17 10:03:22 19 20.20 0.095000 41.649648 41.62752893 0 0 0 0 0 0 0 0 STD5.60
2026-01-17 09:58:20 22 20.80 0.110000 41.649648 41.62752893 0 0 0 0 0 0 0 0 STD5.60
2026-01-17 09:53:18 26 17.20 0.130000 41.649648 41.62752893 0 0 0 0 0 0 0 0 STD5.60
2026-01-17 09:48:16 15 16.90 0.075000 41.649648 41.62752893 0 0 0 0 0 0 0 0 STD5.60
2026-01-17 09:43:14 24 18.60 0.120000 41.649648 41.62752893 0 0 0 0 0 0 0 0 STD5.60
2026-01-17 09:38:12 21 18.10 0.105000 41.649648 41.62752893 0 0 0 0 0 0 0 0 STD5.60
2026-01-17 09:33:07 15 19.80 0.075000 41.649648 41.62752893 0 0 0 0 0 0 0 0 STD5.60
2026-01-17 09:28:05 17 19.90 0.085000 41.649648 41.62752893 0 0 0 0 0 0 0 0 STD5.60
2026-01-17 09:23:03 19 20.40 0.095000 41.649648 41.62752893 0 0 0 0 0 0 0 0 STD5.60
2026-01-17 09:18:01 15 19.80 0.075000 41.649648 41.62752893 0 0 0 0 0 0 0 0 STD5.60
2026-01-17 09:12:59 16 16.70 0.080000 41.649648 41.62752893 0 0 0 0 0 0 0 0 STD5.60
2026-01-17 09:07:57 13 17.30 0.065000 41.649648 41.62752893 0 0 0 0 0 0 0 0 STD5.60
2026-01-17 09:02:55 23 16.50 0.115000 41.649648 41.62752893 0 0 0 0 0 0 0 0 STD5.60
2026-01-17 08:57:53 12 16.70 0.060000 41.649648 41.62752893 0 0 0 0 0 0 0 0 STD5.60
2026-01-17 08:52:51 17 20.00 0.085000 41.649648 41.62752893 0 0 0 0 0 0 0 0 STD5.60
2026-01-17 08:47:49 24 19.60 0.120000 41.649648 41.62752893 0 0 0 0 0 0 0 0 STD5.60
2026-01-17 08:42:47 17 17.80 0.085000 41.649648 41.62752893 0 0 0 0 0 0 0 0 STD5.60
2026-01-17 08:37:44 18 16.50 0.090000 41.649648 41.62752893 0 0 0 0 0 0 0 0 STD5.60
2026-01-17 08:32:40 20 16.00 0.100000 41.649648 41.62752893 0 0 0 0 0 0 0 0 STD5.60
2026-01-17 08:27:38 26 16.40 0.130000 41.649648 41.62752893 0 0 0 0 0 0 0 0 STD5.60
2026-01-17 08:22:36 19 16.00 0.095000 41.649648 41.62752893 0 0 0 0 0 0 0 0 STD5.60
2026-01-17 08:17:34 16 16.00 0.080000 41.649648 41.62752893 0 0 0 0 0 0 0 0 STD5.60
2026-01-17 08:12:32 17 18.80 0.085000 41.649648 41.62752893 0 0 0 0 0 0 0 0 STD5.60
2026-01-17 08:07:29 19 19.90 0.095000 41.649648 41.62752893 0 0 0 0 0 0 0 0 STD5.60
2026-01-17 08:02:28 14 16.90 0.070000 41.649648 41.62752893 0 0 0 0 0 0 0 0 STD5.60
2026-01-17 07:57:26 13 17.50 0.065000 41.649648 41.62752893 0 0 0 0 0 0 0 0 STD5.60
2026-01-17 07:52:23 22 19.50 0.110000 41.649648 41.62752893 0 0 0 0 0 0 0 0 STD5.60
2026-01-17 07:47:21 19 18.70 0.095000 41.649648 41.62752893 0 0 0 0 0 0 0 0 STD5.60
2026-01-17 07:42:19 15 17.00 0.075000 41.649648 41.62752893 0 0 0 0 0 0 0 0 STD5.60
2026-01-17 07:37:18 15 17.80 0.075000 41.649648 41.62752893 0 0 0 0 0 0 0 0 STD5.60
2026-01-17 07:32:13 22 19.30 0.110000 41.649648 41.62752893 0 0 0 0 0 0 0 0 STD5.60
2026-01-17 07:27:11 26 19.70 0.130000 41.649648 41.62752893 0 0 0 0 0 0 0 0 STD5.60
2026-01-17 07:22:09 22 18.10 0.110000 41.649648 41.62752893 0 0 0 0 0 0 0 0 STD5.60
2026-01-17 07:17:07 25 17.30 0.125000 41.649648 41.62752893 0 0 0 0 0 0 0 0 STD5.60
2026-01-17 07:12:05 22 16.40 0.110000 41.649648 41.62752893 0 0 0 0 0 0 0 0 STD5.60
2026-01-17 07:07:03 11 16.20 0.055000 41.649648 41.62752893 0 0 0 0 0 0 0 0 STD5.60
2026-01-17 07:02:00 16 18.70 0.080000 41.649648 41.62752893 0 0 0 0 0 0 0 0 STD5.60
2026-01-17 06:56:58 19 19.20 0.095000 41.649648 41.62752893 0 0 0 0 0 0 0 0 STD5.60
2026-01-17 06:51:56 16 19.40 0.080000 41.649648 41.62752893 0 0 0 0 0 0 0 0 STD5.60
2026-01-17 06:46:54 19 18.40 0.095000 41.649648 41.62752893 0 0 0 0 0 0 0 0 STD5.60
2026-01-17 06:41:52 17 17.80 0.085000 41.649648 41.62752893 0 0 0 0 0 0 0 0 STD5.60
2026-01-17 06:36:51 23 19.10 0.115000 41.649648 41.62752893 0 0 0 0 0 0 0 0 STD5.60
2026-01-17 06:31:47 15 20.90 0.075000 41.649648 41.62752893 0 0 0 0 0 0 0 0 STD5.60
2026-01-17 06:26:45 19 20.40 0.095000 41.649648 41.62752893 0 0 0 0 0 0 0 0 STD5.60
2026-01-17 06:21:42 26 17.40 0.130000 41.649648 41.62752893 0 0 0 0 0 0 0 0 STD5.60
2026-01-17 06:16:40 18 17.90 0.090000 41.649648 41.62752893 0 0 0 0 0 0 0 0 STD5.60
2026-01-17 06:11:39 16 18.60 0.080000 41.649648 41.62752893 0 0 0 0 0 0 0 0 STD5.60
2026-01-17 06:06:36 19 16.00 0.095000 41.649648 41.62752893 0 0 0 0 0 0 0 0 STD5.60
2026-01-17 06:01:34 11 18.10 0.055000 41.649648 41.62752893 0 0 0 0 0 0 0 0 STD5.60
2026-01-17 05:56:32 18 17.50 0.090000 41.649648 41.62752893 0 0 0 0 0 0 0 0 STD5.60
2026-01-17 05:51:30 15 14.10 0.075000 41.649648 41.62752893 0 0 0 0 0 0 0 0 STD5.60
2026-01-17 05:46:27 11 18.20 0.055000 41.649648 41.62752893 0 0 0 0 0 0 0 0 STD5.60
2026-01-17 05:41:26 16 21.80 0.080000 41.649648 41.62752893 0 0 0 0 0 0 0 0 STD5.60
2026-01-17 05:36:23 26 20.50 0.130000 41.649648 41.62752893 0 0 0 0 0 0 0 0 STD5.60
2026-01-17 05:31:20 21 19.80 0.105000 41.649648 41.62752893 0 0 0 0 0 0 0 0 STD5.60
2026-01-17 05:26:17 21 17.80 0.105000 41.649648 41.62752893 0 0 0 0 0 0 0 0 STD5.60
2026-01-17 05:21:15 16 16.80 0.080000 41.649648 41.62752893 0 0 0 0 0 0 0 0 STD5.60
2026-01-17 05:16:13 16 19.10 0.080000 41.649648 41.62752893 0 0 0 0 0 0 0 0 STD5.60
2026-01-17 05:11:11 19 19.00 0.095000 41.649648 41.62752893 0 0 0 0 0 0 0 0 STD5.60
2026-01-17 05:06:09 17 16.90 0.085000 41.649648 41.62752893 0 0 0 0 0 0 0 0 STD5.60
2026-01-17 05:01:07 17 17.90 0.085000 41.649648 41.62752893 0 0 0 0 0 0 0 0 STD5.60
2026-01-17 04:56:04 18 17.60 0.090000 41.649648 41.62752893 0 0 0 0 0 0 0 0 STD5.60
2026-01-17 04:51:02 15 15.50 0.075000 41.649648 41.62752893 0 0 0 0 0 0 0 0 STD5.60
2026-01-17 04:46:00 17 16.30 0.085000 41.649648 41.62752893 0 0 0 0 0 0 0 0 STD5.60
2026-01-17 04:40:58 21 17.20 0.105000 41.649648 41.62752893 0 0 0 0 0 0 0 0 STD5.60
2026-01-17 04:35:56 16 18.40 0.080000 41.649648 41.62752893 0 0 0 0 0 0 0 0 STD5.60
2026-01-17 04:30:51 9 18.90 0.045000 41.649648 41.62752893 0 0 0 0 0 0 0 0 STD5.60
2026-01-17 04:25:48 21 19.50 0.105000 41.649648 41.62752893 0 0 0 0 0 0 0 0 STD5.60
2026-01-17 04:20:46 33 19.80 0.165000 41.649648 41.62752893 0 0 0 0 0 0 0 0 STD5.60
2026-01-17 04:15:44 21 18.20 0.105000 41.649648 41.62752893 0 0 0 0 0 0 0 0 STD5.60
2026-01-17 04:10:42 15 16.30 0.075000 41.649648 41.62752893 0 0 0 0 0 0 0 0 STD5.60
2026-01-17 04:05:40 19 18.20 0.095000 41.649648 41.62752893 0 0 0 0 0 0 0 0 STD5.60
2026-01-17 04:00:38 15 19.40 0.075000 41.649648 41.62752893 0 0 0 0 0 0 0 0 STD5.60
2026-01-17 03:55:36 21 17.80 0.105000 41.649648 41.62752893 0 0 0 0 0 0 0 0 STD5.60
2026-01-17 03:50:34 13 18.00 0.065000 41.649648 41.62752893 0 0 0 0 0 0 0 0 STD5.60
2026-01-17 03:45:32 18 17.60 0.090000 41.649648 41.62752893 0 0 0 0 0 0 0 0 STD5.60
2026-01-17 03:40:30 17 17.50 0.085000 41.649648 41.62752893 0 0 0 0 0 0 0 0 STD5.60
2026-01-17 03:35:29 20 16.70 0.100000 41.649648 41.62752893 0 0 0 0 0 0 0 0 STD5.60
2026-01-17 03:30:24 14 16.60 0.070000 41.649648 41.62752893 0 0 0 0 0 0 0 0 STD5.60
2026-01-17 03:25:21 22 17.40 0.110000 41.649648 41.62752893 0 0 0 0 0 0 0 0 STD5.60
2026-01-17 03:20:20 24 16.30 0.120000 41.649648 41.62752893 0 0 0 0 0 0 0 0 STD5.60
2026-01-17 03:15:18 12 17.40 0.060000 41.649648 41.62752893 0 0 0 0 0 0 0 0 STD5.60
2026-01-17 03:10:16 15 19.20 0.075000 41.649648 41.62752893 0 0 0 0 0 0 0 0 STD5.60
2026-01-17 03:05:14 18 19.20 0.090000 41.649648 41.62752893 0 0 0 0 0 0 0 0 STD5.60
2026-01-17 03:00:12 12 18.20 0.060000 41.649648 41.62752893 0 0 0 0 0 0 0 0 STD5.60
2026-01-17 02:55:10 13 16.90 0.065000 41.649648 41.62752893 0 0 0 0 0 0 0 0 STD5.60
2026-01-17 02:50:08 21 17.40 0.105000 41.649648 41.62752893 0 0 0 0 0 0 0 0 STD5.60
2026-01-17 02:45:06 19 18.40 0.095000 41.649648 41.62752893 0 0 0 0 0 0 0 0 STD5.60
2026-01-17 02:40:05 25 20.10 0.125000 41.649648 41.62752893 0 0 0 0 0 0 0 0 STD5.60
2026-01-17 02:35:01 24 20.20 0.120000 41.649648 41.62752893 0 0 0 0 0 0 0 0 STD5.60
2026-01-17 02:29:57 16 19.30 0.080000 41.649648 41.62752893 0 0 0 0 0 0 0 0 STD5.60
2026-01-17 02:24:55 13 18.80 0.065000 41.649648 41.62752893 0 0 0 0 0 0 0 0 STD5.60
2026-01-17 02:19:53 18 17.80 0.090000 41.649648 41.62752893 0 0 0 0 0 0 0 0 STD5.60
2026-01-17 02:14:51 15 17.80 0.075000 41.649648 41.62752893 0 0 0 0 0 0 0 0 STD5.60
2026-01-17 02:09:49 13 19.60 0.065000 41.649648 41.62752893 0 0 0 0 0 0 0 0 STD5.60
2026-01-17 02:04:47 22 20.40 0.110000 41.649648 41.62752893 0 0 0 0 0 0 0 0 STD5.60
2026-01-17 01:59:45 24 18.40 0.120000 41.649648 41.62752893 0 0 0 0 0 0 0 0 STD5.60
2026-01-17 01:54:43 14 16.00 0.070000 41.649648 41.62752893 0 0 0 0 0 0 0 0 STD5.60
2026-01-17 01:49:40 23 19.30 0.115000 41.649648 41.62752893 0 0 0 0 0 0 0 0 STD5.60
2026-01-17 01:44:38 21 19.50 0.105000 41.649648 41.62752893 0 0 0 0 0 0 0 0 STD5.60
2026-01-17 01:39:36 20 17.30 0.100000 41.649648 41.62752893 0 0 0 0 0 0 0 0 STD5.60
2026-01-17 01:34:34 16 17.30 0.080000 41.649648 41.62752893 0 0 0 0 0 0 0 0 STD5.60
2026-01-17 01:29:30 24 17.90 0.120000 41.649648 41.62752893 0 0 0 0 0 0 0 0 STD5.60
2026-01-17 01:24:28 23 18.40 0.115000 41.649648 41.62752893 0 0 0 0 0 0 0 0 STD5.60
2026-01-17 01:19:26 17 18.80 0.085000 41.649648 41.62752893 0 0 0 0 0 0 0 0 STD5.60
2026-01-17 01:14:24 25 15.90 0.125000 41.649648 41.62752893 0 0 0 0 0 0 0 0 STD5.60
2026-01-17 01:09:22 18 14.20 0.090000 41.649648 41.62752893 0 0 0 0 0 0 0 0 STD5.60
2026-01-17 01:04:20 10 15.50 0.050000 41.649648 41.62752893 0 0 0 0 0 0 0 0 STD5.60
2026-01-17 00:59:18 16 15.10 0.080000 41.649648 41.62752893 0 0 0 0 0 0 0 0 STD5.60
2026-01-17 00:54:16 12 16.40 0.060000 41.649648 41.62752893 0 0 0 0 0 0 0 0 STD5.60
2026-01-17 00:49:14 18 16.70 0.090000 41.649648 41.62752893 0 0 0 0 0 0 0 0 STD5.60
2026-01-17 00:44:12 21 16.30 0.105000 41.649648 41.62752893 0 0 0 0 0 0 0 0 STD5.60
2026-01-17 00:39:10 13 17.90 0.065000 41.649648 41.62752893 0 0 0 0 0 0 0 0 STD5.60
2026-01-17 00:34:08 22 18.30 0.110000 41.649648 41.62752893 0 0 0 0 0 0 0 0 STD5.60
2026-01-17 00:29:04 21 18.60 0.105000 41.649648 41.62752893 0 0 0 0 0 0 0 0 STD5.60
2026-01-17 00:24:02 14 19.30 0.070000 41.649648 41.62752893 0 0 0 0 0 0 0 0 STD5.60
2026-01-17 00:19:00 15 16.60 0.075000 41.649648 41.62752893 0 0 0 0 0 0 0 0 STD5.60
2026-01-17 00:13:58 16 18.10 0.080000 41.649648 41.62752893 0 0 0 0 0 0 0 0 STD5.60
2026-01-17 00:08:57 19 19.30 0.095000 41.649648 41.62752893 0 0 0 0 0 0 0 0 STD5.60
2026-01-17 00:03:54 12 17.80 0.060000 41.649648 41.62752893 0 0 0 0 0 0 0 0 STD5.60
2026-01-16 23:58:52 16 19.30 0.080000 41.649648 41.62752893 0 0 0 0 0 0 0 0 STD5.60
2026-01-16 23:53:51 20 18.50 0.100000 41.649648 41.62752893 0 0 0 0 0 0 0 0 STD5.60
2026-01-16 23:48:48 15 15.60 0.075000 41.649648 41.62752893 0 0 0 0 0 0 0 0 STD5.60
2026-01-16 23:43:46 13 16.60 0.065000 41.649648 41.62752893 0 0 0 0 0 0 0 0 STD5.60
2026-01-16 23:38:44 17 17.60 0.085000 41.649648 41.62752893 0 0 0 0 0 0 0 0 STD5.60
2026-01-16 23:33:42 15 15.80 0.075000 41.649648 41.62752893 0 0 0 0 0 0 0 0 STD5.60
2026-01-16 23:28:37 16 16.20 0.080000 41.649648 41.62752893 0 0 0 0 0 0 0 0 STD5.60
2026-01-16 23:23:35 19 17.40 0.095000 41.649648 41.62752893 0 0 0 0 0 0 0 0 STD5.60
2026-01-16 23:18:33 19 17.20 0.095000 41.649648 41.62752893 0 0 0 0 0 0 0 0 STD5.60
2026-01-16 23:13:31 17 17.20 0.085000 41.649648 41.62752893 0 0 0 0 0 0 0 0 STD5.60
2026-01-16 23:08:29 17 17.20 0.085000 41.649648 41.62752893 0 0 0 0 0 0 0 0 STD5.60
2026-01-16 23:03:27 13 17.80 0.065000 41.649648 41.62752893 0 0 0 0 0 0 0 0 STD5.60
2026-01-16 22:58:25 17 17.40 0.085000 41.649648 41.62752893 0 0 0 0 0 0 0 0 STD5.60
2026-01-16 22:53:23 18 17.40 0.090000 41.649648 41.62752893 0 0 0 0 0 0 0 0 STD5.60
2026-01-16 22:48:21 26 18.10 0.130000 41.649648 41.62752893 0 0 0 0 0 0 0 0 STD5.60
2026-01-16 22:43:19 13 17.60 0.065000 41.649648 41.62752893 0 0 0 0 0 0 0 0 STD5.60
2026-01-16 22:38:17 20 16.70 0.100000 41.649648 41.62752893 0 0 0 0 0 0 0 0 STD5.60
2026-01-16 22:33:15 14 18.50 0.070000 41.649648 41.62752893 0 0 0 0 0 0 0 0 STD5.60
2026-01-16 22:28:11 22 18.90 0.110000 41.649648 41.62752893 0 0 0 0 0 0 0 0 STD5.60
2026-01-16 22:23:09 17 17.00 0.085000 41.649648 41.62752893 0 0 0 0 0 0 0 0 STD5.60
2026-01-16 22:18:07 25 17.00 0.125000 41.649648 41.62752893 0 0 0 0 0 0 0 0 STD5.60
2026-01-16 22:13:05 18 17.80 0.090000 41.649648 41.62752893 0 0 0 0 0 0 0 0 STD5.60
2026-01-16 22:08:03 21 17.40 0.105000 41.649648 41.62752893 0 0 0 0 0 0 0 0 STD5.60
Geiger Counter World Map       A real time radiation map.     Copyright 2015 All rights reserved.